Time;durP1;ratioP1;P1;durP2;ratioP2;P2;SDS_P1;SDS_P2;PMS_P1;PMS_P2;Temp;Humidity;BMP_temperature;BMP_pressure;BME280_temperature;BME280_humidity;BME280_pressure;Samples;Min_cycle;Max_cycle;Signal;HPM_P1;HPM_P2
2023/05/27 00:02:10;;;;;;;19.63;5.68;;;;;;;13.27;76.62;98021.53;6155735;23;20398;-77
2023/05/27 00:04:37;;;;;;;13.90;5.22;;;;;;;13.26;77.01;98017.28;6155771;23;20378;-78
2023/05/27 00:07:03;;;;;;;15.02;6.00;;;;;;;13.23;76.62;98015.13;6156737;23;20422;-78
2023/05/27 00:09:31;;;;;;;13.50;5.50;;;;;;;13.31;76.06;98019.97;6156790;23;20846;-78
2023/05/27 00:11:57;;;;;;;16.00;4.95;;;;;;;13.06;77.55;98012.56;6156655;23;20387;-77
2023/05/27 00:14:24;;;;;;;15.80;5.10;;;;;;;13.19;76.49;98022.81;6157038;23;20442;-77
2023/05/27 00:16:51;;;;;;;17.13;6.18;;;;;;;13.25;76.65;98019.13;6156459;23;20371;-77
2023/05/27 00:19:17;;;;;;;17.75;5.28;;;;;;;13.33;76.33;98013.34;6156889;23;20371;-78
2023/05/27 00:21:44;;;;;;;19.42;5.25;;;;;;;13.22;75.59;98021.50;6156842;23;20371;-78
2023/05/27 00:24:11;;;;;;;20.85;5.72;;;;;;;13.48;76.23;98023.31;6130031;23;20379;-78
2023/05/27 00:26:39;;;;;;;15.45;5.10;;;;;;;13.55;75.88;98024.69;6156818;23;20398;-78
2023/05/27 00:29:05;;;;;;;14.13;4.70;;;;;;;13.34;75.85;98022.94;6156521;23;20735;-77
2023/05/27 00:31:31;;;;;;;14.30;4.77;;;;;;;13.50;75.28;98026.53;6157339;23;20394;-78
2023/05/27 00:33:57;;;;;;;13.90;4.53;;;;;;;13.50;75.31;98019.34;6156720;23;20383;-77
2023/05/27 00:36:23;;;;;;;15.30;5.30;;;;;;;13.62;75.70;98018.38;6156870;23;20367;-78
2023/05/27 00:38:49;;;;;;;16.60;5.13;;;;;;;13.30;75.58;98018.38;6156203;23;20374;-78
2023/05/27 00:41:16;;;;;;;14.05;5.05;;;;;;;13.23;76.39;98007.16;6156784;23;20760;-78
2023/05/27 00:43:43;;;;;;;15.20;4.85;;;;;;;13.17;76.70;98014.25;6156624;23;20395;-78
2023/05/27 00:46:10;;;;;;;17.35;5.32;;;;;;;13.30;77.36;98016.53;6155722;23;20371;-78
2023/05/27 00:48:36;;;;;;;18.60;5.63;;;;;;;13.22;76.98;98014.34;6156441;23;20394;-77
2023/05/27 00:51:02;;;;;;;19.23;5.00;;;;;;;13.02;77.35;98009.56;6145348;23;20367;-77
2023/05/27 00:53:34;;;;;;;17.55;5.20;;;;;;;12.91;77.16;98004.44;6157554;23;20387;-78
2023/05/27 00:56:02;;;;;;;18.60;5.10;;;;;;;12.83;77.72;98011.00;6157238;23;20386;-78
2023/05/27 00:58:29;;;;;;;16.50;4.90;;;;;;;12.94;78.22;98010.03;6156886;23;20499;-78
2023/05/27 01:00:57;;;;;;;17.77;5.35;;;;;;;12.86;78.99;98005.16;6157530;23;20898;-78
2023/05/27 01:03:23;;;;;;;11.75;4.50;;;;;;;12.89;79.41;98010.00;6156820;23;20366;-79
2023/05/27 01:05:53;;;;;;;16.50;5.15;;;;;;;12.60;78.83;98013.91;6157984;23;20374;-78
2023/05/27 01:08:28;;;;;;;12.73;4.53;;;;;;;12.68;79.75;98008.16;6157670;23;20458;-78
2023/05/27 01:10:56;;;;;;;14.25;4.95;;;;;;;12.69;79.65;98004.47;6158634;23;20450;-78
2023/05/27 01:13:35;;;;;;;13.85;4.80;;;;;;;12.54;79.12;98004.28;6158136;23;20699;-77
2023/05/27 01:16:08;;;;;;;13.98;4.63;;;;;;;12.47;79.63;97998.38;6158288;23;20375;-79
2023/05/27 01:18:35;;;;;;;19.55;5.35;;;;;;;12.55;80.03;98000.59;6158352;23;20363;-79
2023/05/27 01:21:05;;;;;;;15.95;6.05;;;;;;;12.56;80.22;98005.63;6132494;23;20461;-78
2023/05/27 01:23:33;;;;;;;19.00;5.30;;;;;;;12.20;79.91;98004.41;6159519;23;20429;-78
2023/05/27 01:26:00;;;;;;;15.55;5.45;;;;;;;12.32;81.14;97999.00;6160003;23;20382;-79
2023/05/27 01:28:26;;;;;;;17.83;5.28;;;;;;;12.34;81.30;98007.50;6172564;23;20371;-78
2023/05/27 01:30:58;;;;;;;16.58;5.22;;;;;;;12.26;81.40;97998.09;6178270;23;20430;-78
2023/05/27 01:33:30;;;;;;;19.00;5.30;;;;;;;12.33;80.96;98000.56;6172131;23;20767;-77
2023/05/27 01:36:01;;;;;;;15.57;4.97;;;;;;;12.33;81.76;97990.75;6158987;23;20390;-77
2023/05/27 01:38:31;;;;;;;13.52;5.15;;;;;;;12.30;81.68;97991.28;6159424;23;20457;-78
2023/05/27 01:40:59;;;;;;;18.00;5.35;;;;;;;12.31;81.63;97994.72;6159250;23;20367;-77
2023/05/27 01:43:26;;;;;;;16.52;5.05;;;;;;;12.13;82.03;97979.91;6158621;23;20689;-78
2023/05/27 01:45:52;;;;;;;19.30;5.57;;;;;;;12.19;82.39;97978.09;6159187;23;20367;-77
2023/05/27 01:48:19;;;;;;;17.73;5.88;;;;;;;12.05;82.86;97984.81;6159003;23;20846;-77
2023/05/27 01:50:45;;;;;;;20.23;5.55;;;;;;;12.19;83.95;97983.41;6159317;23;20750;-77
2023/05/27 01:53:13;;;;;;;17.38;5.50;;;;;;;12.07;83.75;97980.06;6158932;23;20426;-78
2023/05/27 01:55:39;;;;;;;18.13;5.03;;;;;;;12.05;84.58;97980.31;6159446;23;20374;-78
2023/05/27 01:58:07;;;;;;;14.13;5.07;;;;;;;12.01;85.25;97977.38;6160563;23;20363;-78
2023/05/27 02:00:33;;;;;;;21.10;5.68;;;;;;;12.02;85.24;97975.53;6133820;23;20371;-78
2023/05/27 02:02:59;;;;;;;16.77;5.22;;;;;;;12.02;84.74;97972.88;6160750;23;20368;-78
2023/05/27 02:05:25;;;;;;;16.38;4.95;;;;;;;11.89;84.89;97973.19;6159708;23;20751;-77
2023/05/27 02:07:52;;;;;;;18.47;5.77;;;;;;;11.75;84.98;97975.41;6160345;23;20449;-78
2023/05/27 02:10:18;;;;;;;29.77;5.60;;;;;;;11.83;85.87;97967.03;6160560;23;20371;-78
2023/05/27 02:12:44;;;;;;;15.43;5.72;;;;;;;11.91;86.39;97977.22;6159736;23;20747;-77
2023/05/27 02:15:12;;;;;;;15.27;5.03;;;;;;;11.79;86.34;97979.19;6160316;23;20375;-77
2023/05/27 02:17:38;;;;;;;19.65;5.10;;;;;;;11.81;86.93;97969.13;6134337;23;20386;-78
2023/05/27 02:20:05;;;;;;;18.23;5.50;;;;;;;11.63;88.46;97967.53;6161808;23;20374;-78
2023/05/27 02:22:32;;;;;;;18.90;5.72;;;;;;;11.63;89.43;97974.69;6161622;23;20378;-78
2023/05/27 02:24:58;;;;;;;16.75;5.28;;;;;;;11.62;89.66;97975.72;6159857;23;20707;-79
2023/05/27 02:27:24;;;;;;;18.95;5.93;;;;;;;11.56;90.48;97966.09;6160113;23;20417;-78
2023/05/27 02:29:50;;;;;;;20.67;5.57;;;;;;;11.53;90.17;97977.97;6161002;23;20376;-78
2023/05/27 02:32:18;;;;;;;16.05;5.60;;;;;;;11.52;90.66;97971.06;6160501;23;20418;-78
2023/05/27 02:34:44;;;;;;;15.18;5.88;;;;;;;11.46;90.70;97963.28;6160718;23;20393;-78
2023/05/27 02:37:11;;;;;;;13.65;4.75;;;;;;;11.50;91.15;97967.06;6161547;23;20371;-78
2023/05/27 02:39:37;;;;;;;20.40;5.53;;;;;;;11.53;91.05;97966.56;6161468;23;20371;-78
2023/05/27 02:42:04;;;;;;;21.13;5.30;;;;;;;11.53;91.27;97969.22;6160817;23;20370;-78
2023/05/27 02:44:30;;;;;;;15.73;5.78;;;;;;;11.40;91.69;97956.28;6160229;23;20371;-79
2023/05/27 02:46:56;;;;;;;20.38;6.05;;;;;;;11.36;92.72;97969.22;6160689;23;20399;-78
2023/05/27 02:49:24;;;;;;;18.27;5.47;;;;;;;11.29;93.14;97954.53;6161474;23;20377;-78
2023/05/27 02:51:51;;;;;;;16.30;5.32;;;;;;;11.20;94.02;97960.22;6161281;23;20367;-78
2023/05/27 02:54:17;;;;;;;18.25;5.72;;;;;;;11.29;95.17;97965.91;6160773;23;20374;-78
2023/05/27 02:56:43;;;;;;;23.80;6.00;;;;;;;11.24;95.98;97969.31;6160565;23;20378;-79
2023/05/27 02:59:09;;;;;;;24.13;5.97;;;;;;;11.14;96.75;97961.19;6160400;23;20385;-77
2023/05/27 03:01:35;;;;;;;15.38;5.47;;;;;;;11.24;96.60;97958.72;6159911;23;20371;-78
2023/05/27 03:04:03;;;;;;;18.50;5.47;;;;;;;11.27;96.03;97967.22;6133713;23;20384;-79
2023/05/27 03:06:30;;;;;;;18.17;5.55;;;;;;;11.06;96.05;97964.22;6160627;23;20375;-78
2023/05/27 03:08:56;;;;;;;23.15;5.82;;;;;;;11.13;96.64;97956.91;6160604;23;20366;-78
2023/05/27 03:11:22;;;;;;;16.00;5.40;;;;;;;11.13;97.52;97964.06;6160661;23;20399;-77
2023/05/27 03:13:49;;;;;;;19.30;5.30;;;;;;;11.17;98.41;97959.91;6159806;23;20401;-77
2023/05/27 03:16:16;;;;;;;24.07;6.33;;;;;;;11.13;99.83;97961.41;6160353;23;20414;-78
2023/05/27 03:18:42;;;;;;;17.20;5.18;;;;;;;11.03;99.11;97964.72;6160999;23;20525;-78
2023/05/27 03:21:08;;;;;;;20.23;5.78;;;;;;;11.13;99.14;97966.72;6160348;23;20699;-78
2023/05/27 03:23:35;;;;;;;16.67;5.50;;;;;;;11.06;99.87;97966.88;6159467;23;20452;-77
2023/05/27 03:26:02;;;;;;;17.25;5.32;;;;;;;11.10;100.00;97965.38;6160473;23;20380;-79
2023/05/27 03:28:28;;;;;;;21.95;6.35;;;;;;;10.99;100.00;97963.56;6160096;23;20367;-77
2023/05/27 03:30:56;;;;;;;22.10;5.95;;;;;;;11.03;100.00;97966.56;6160104;23;20402;-77
2023/05/27 03:33:22;;;;;;;22.40;6.45;;;;;;;11.04;100.00;97963.69;6159240;23;20383;-78
2023/05/27 03:35:49;;;;;;;19.45;5.88;;;;;;;10.94;100.00;97968.00;6160206;23;20707;-77
2023/05/27 03:38:15;;;;;;;18.23;5.50;;;;;;;10.98;100.00;97969.09;6159910;23;20402;-79
2023/05/27 03:40:43;;;;;;;17.67;5.78;;;;;;;11.04;100.00;97973.47;6158694;23;20406;-77
2023/05/27 03:43:09;;;;;;;17.83;5.33;;;;;;;11.01;100.00;97964.16;6158412;23;20453;-78
2023/05/27 03:45:35;;;;;;;18.17;5.65;;;;;;;11.04;100.00;97968.19;6159584;23;20371;-78
2023/05/27 03:48:02;;;;;;;22.25;5.70;;;;;;;10.98;100.00;97961.97;6159007;23;20700;-78
2023/05/27 03:50:28;;;;;;;18.17;5.82;;;;;;;10.85;100.00;97967.56;6159422;23;20398;-77
2023/05/27 03:52:54;;;;;;;22.98;6.45;;;;;;;10.76;100.00;97961.06;6159305;23;20688;-78
2023/05/27 03:55:20;;;;;;;18.35;5.30;;;;;;;10.89;100.00;97962.63;6158582;23;20922;-77
2023/05/27 03:57:48;;;;;;;19.48;5.75;;;;;;;10.92;100.00;97965.56;6158581;23;20371;-79
2023/05/27 04:00:17;;;;;;;17.23;5.57;;;;;;;10.91;100.00;97966.63;6159380;23;20371;-78
2023/05/27 04:02:43;;;;;;;19.88;6.25;;;;;;;10.90;100.00;97961.59;6158755;23;20370;-78
2023/05/27 04:05:10;;;;;;;18.90;5.65;;;;;;;10.96;100.00;97966.72;6159031;23;20366;-77
2023/05/27 04:07:37;;;;;;;20.70;6.70;;;;;;;10.75;100.00;97959.47;6158988;23;20371;-78
2023/05/27 04:10:04;;;;;;;15.18;5.53;;;;;;;10.95;100.00;97965.13;6158720;23;20371;-78
2023/05/27 04:12:31;;;;;;;20.17;5.72;;;;;;;10.93;100.00;97964.53;6158158;23;20389;-78
2023/05/27 04:14:58;;;;;;;16.20;5.32;;;;;;;11.14;100.00;97960.38;6158002;23;20898;-77
2023/05/27 04:17:24;;;;;;;24.63;6.15;;;;;;;11.16;100.00;97955.66;6158549;23;20918;-77
2023/05/27 04:19:51;;;;;;;18.35;5.80;;;;;;;11.18;100.00;97956.22;6158819;23;20367;-78
2023/05/27 04:22:17;;;;;;;20.00;6.00;;;;;;;11.23;100.00;97959.75;6158414;23;20696;-77
2023/05/27 04:24:43;;;;;;;16.33;5.40;;;;;;;11.36;100.00;97968.41;6158743;23;20505;-77
2023/05/27 04:27:09;;;;;;;18.08;5.80;;;;;;;11.38;100.00;97968.97;6158353;23;20459;-78
2023/05/27 04:29:38;;;;;;;25.30;6.38;;;;;;;11.43;100.00;97969.03;6158314;23;20827;-78
2023/05/27 04:32:05;;;;;;;23.10;5.47;;;;;;;11.54;100.00;97973.47;6158077;23;20367;-78
2023/05/27 04:34:32;;;;;;;16.20;5.22;;;;;;;11.64;100.00;97969.13;6157186;23;20378;-77
2023/05/27 04:37:00;;;;;;;20.70;6.10;;;;;;;11.68;100.00;97976.59;6157000;23;20375;-77
2023/05/27 04:39:27;;;;;;;17.73;5.53;;;;;;;11.75;100.00;97970.09;6156677;23;20823;-78
2023/05/27 04:41:53;;;;;;;20.30;6.43;;;;;;;11.79;100.00;97967.78;6157243;23;20371;-78
2023/05/27 04:44:19;;;;;;;22.83;5.93;;;;;;;11.90;100.00;97978.28;6130643;23;20457;-78
2023/05/27 04:46:47;;;;;;;24.60;6.57;;;;;;;11.99;100.00;97974.16;6157793;23;20371;-77
2023/05/27 04:49:15;;;;;;;16.67;5.28;;;;;;;12.05;100.00;97975.00;6156208;23;20375;-77
2023/05/27 04:51:41;;;;;;;22.35;6.15;;;;;;;12.14;100.00;97970.09;6156528;23;20394;-78
2023/05/27 04:54:07;;;;;;;17.05;5.80;;;;;;;12.23;100.00;97971.25;6157358;23;20385;-78
2023/05/27 04:56:33;;;;;;;20.58;5.80;;;;;;;12.22;100.00;97962.50;6159107;23;20363;-78
2023/05/27 04:58:59;;;;;;;22.52;5.82;;;;;;;12.36;100.00;97957.63;6159205;23;20382;-78
2023/05/27 05:01:27;;;;;;;22.13;6.47;;;;;;;12.45;100.00;97966.75;6163486;23;20367;-78
2023/05/27 05:04:11;;;;;;;21.08;6.18;;;;;;;12.57;100.00;97961.28;6163602;23;20402;-78
2023/05/27 05:06:39;;;;;;;23.25;6.05;;;;;;;12.57;100.00;97953.31;6159985;23;20373;-78
2023/05/27 05:09:06;;;;;;;20.58;6.10;;;;;;;12.55;100.00;97960.75;6160630;23;20374;-78
2023/05/27 05:11:32;;;;;;;21.90;6.03;;;;;;;12.55;100.00;97960.75;6162095;23;20367;-78
2023/05/27 05:13:58;;;;;;;21.45;6.18;;;;;;;12.64;100.00;97961.91;6157235;23;20390;-77
2023/05/27 05:16:24;;;;;;;28.23;6.38;;;;;;;12.60;100.00;97966.13;6156188;23;20471;-77
2023/05/27 05:18:50;;;;;;;20.88;6.18;;;;;;;12.71;100.00;97965.16;6158083;23;20398;-77
2023/05/27 05:21:17;;;;;;;26.33;6.50;;;;;;;12.72;100.00;97966.75;6161197;23;20391;-77
2023/05/27 05:23:44;;;;;;;19.10;6.18;;;;;;;12.87;100.00;97974.06;6162047;23;20373;-77
2023/05/27 05:26:10;;;;;;;21.40;6.07;;;;;;;12.99;97.21;97969.44;6162155;23;20395;-78
2023/05/27 05:28:36;;;;;;;26.48;6.70;;;;;;;12.97;99.92;97967.03;6159500;23;20378;-77
2023/05/27 05:31:03;;;;;;;23.17;6.28;;;;;;;12.95;100.00;97974.44;6159369;23;20699;-77
2023/05/27 05:33:29;;;;;;;24.35;6.72;;;;;;;13.07;99.81;97975.09;6158882;23;20387;-78
2023/05/27 05:35:56;;;;;;;22.20;5.63;;;;;;;13.18;96.86;97968.84;6158129;23;20378;-79
2023/05/27 05:38:22;;;;;;;30.85;6.85;;;;;;;13.23;98.22;97975.25;6156268;23;20378;-77
2023/05/27 05:40:52;;;;;;;22.10;6.30;;;;;;;13.33;98.21;97967.34;6157457;23;20398;-78
2023/05/27 05:43:18;;;;;;;30.83;7.00;;;;;;;13.38;96.00;97972.72;6157125;23;20390;-78
2023/05/27 05:45:45;;;;;;;22.15;5.60;;;;;;;13.48;97.86;97981.56;6158018;23;20371;-78
2023/05/27 05:48:11;;;;;;;26.15;6.32;;;;;;;13.51;96.51;97975.75;6159618;23;20446;-78
2023/05/27 05:50:37;;;;;;;20.73;5.88;;;;;;;13.65;95.02;97977.97;6159872;23;20434;-79
2023/05/27 05:53:03;;;;;;;26.13;6.10;;;;;;;13.65;96.25;97970.78;6146408;23;20390;-80
2023/05/27 05:55:29;;;;;;;22.65;5.97;;;;;;;13.68;97.23;97974.81;6160183;23;20387;-79
2023/05/27 05:57:57;;;;;;;19.75;5.95;;;;;;;13.73;95.98;97972.97;6161448;23;20371;-79
2023/05/27 06:00:23;;;;;;;24.67;6.05;;;;;;;13.77;94.72;97966.06;6162416;23;20367;-79
2023/05/27 06:02:50;;;;;;;16.75;5.10;;;;;;;13.82;94.99;97967.97;6162833;23;20374;-79
2023/05/27 06:05:16;;;;;;;23.23;6.50;;;;;;;13.82;95.60;97967.97;6160480;23;20453;-79
2023/05/27 06:07:43;;;;;;;18.88;5.30;;;;;;;13.91;92.61;97971.72;6133479;23;20391;-79
2023/05/27 06:10:09;;;;;;;23.13;6.60;;;;;;;13.95;94.89;97962.19;6160847;23;20382;-80
2023/05/27 06:12:36;;;;;;;19.07;6.00;;;;;;;14.00;93.69;97964.06;6160650;23;20847;-80
2023/05/27 06:15:04;;;;;;;22.85;6.25;;;;;;;14.08;92.81;97972.34;6159615;23;20478;-79
2023/05/27 06:17:31;;;;;;;25.13;6.07;;;;;;;14.17;94.40;97975.31;6160363;23;20848;-79
2023/05/27 06:19:57;;;;;;;21.63;6.07;;;;;;;14.24;94.71;97973.22;6161586;23;20393;-80
2023/05/27 06:22:24;;;;;;;16.05;5.53;;;;;;;14.29;93.76;97974.03;6160026;23;20422;-79
2023/05/27 06:24:50;;;;;;;20.73;5.57;;;;;;;14.32;92.38;97968.22;6159624;23;20874;-78
2023/05/27 06:27:16;;;;;;;22.15;5.60;;;;;;;14.44;90.73;97967.19;6160568;23;20782;-78
2023/05/27 06:29:44;;;;;;;19.73;5.35;;;;;;;14.45;88.18;97966.16;6161247;23;20375;-77
2023/05/27 06:32:11;;;;;;;20.55;5.70;;;;;;;14.53;86.72;97966.44;6160068;23;20397;-77
2023/05/27 06:34:38;;;;;;;18.13;5.72;;;;;;;14.61;87.17;97960.59;6160723;23;20370;-79
2023/05/27 06:37:04;;;;;;;23.25;5.63;;;;;;;14.70;85.34;97972.38;6158766;23;20430;-77
2023/05/27 06:39:31;;;;;;;21.93;5.60;;;;;;;14.72;84.22;97966.78;6158155;23;20431;-78
2023/05/27 06:41:57;;;;;;;21.10;5.93;;;;;;;14.82;83.73;97955.31;6161948;23;20378;-78
2023/05/27 06:44:23;;;;;;;20.70;6.05;;;;;;;14.91;82.66;97965.19;6156207;23;20363;-78
2023/05/27 06:46:49;;;;;;;25.00;5.68;;;;;;;14.92;82.54;97958.00;6163223;23;20399;-78
2023/05/27 06:49:18;;;;;;;29.80;5.90;;;;;;;15.00;83.45;97966.28;6163600;23;20421;-79
2023/05/27 06:51:44;;;;;;;21.40;5.88;;;;;;;15.06;81.89;97962.56;6163755;23;20378;-79
2023/05/27 06:54:12;;;;;;;18.75;5.35;;;;;;;15.01;79.98;97964.41;6163228;23;20383;-79
2023/05/27 06:56:38;;;;;;;17.73;5.85;;;;;;;15.07;81.00;97964.16;6161668;23;20375;-79
2023/05/27 06:59:04;;;;;;;29.93;6.23;;;;;;;15.16;82.31;97961.75;6164750;23;20465;-80
2023/05/27 07:01:31;;;;;;;22.95;5.57;;;;;;;15.22;83.26;97967.91;6167178;23;20367;-78
2023/05/27 07:03:57;;;;;;;21.42;5.78;;;;;;;15.27;80.79;97966.03;6162468;23;20579;-78
2023/05/27 07:06:25;;;;;;;23.05;5.63;;;;;;;15.38;80.79;97956.16;6162857;23;20731;-78
2023/05/27 07:08:52;;;;;;;20.70;5.72;;;;;;;15.55;81.11;97963.94;6161858;23;20409;-78
2023/05/27 07:11:18;;;;;;;23.50;5.82;;;;;;;15.66;80.54;97968.16;6165418;23;20915;-79
2023/05/27 07:13:44;;;;;;;21.50;6.63;;;;;;;15.75;79.61;97974.56;6166861;23;20723;-79
2023/05/27 07:16:11;;;;;;;26.48;6.20;;;;;;;15.76;78.03;97974.31;6136604;23;20379;-79
2023/05/27 07:18:37;;;;;;;20.02;5.30;;;;;;;15.85;77.79;97975.38;6136773;23;20379;-77
2023/05/27 07:21:03;;;;;;;20.48;5.90;;;;;;;15.93;76.80;97973.22;6163564;23;20486;-78
2023/05/27 07:23:31;;;;;;;23.30;5.90;;;;;;;15.94;76.64;97974.81;6159813;23;20399;-79
2023/05/27 07:25:57;;;;;;;23.67;5.93;;;;;;;16.08;77.33;97975.84;6163036;23;20420;-78
2023/05/27 07:28:23;;;;;;;21.30;5.97;;;;;;;16.08;74.95;97970.50;6162994;23;20425;-80
2023/05/27 07:30:49;;;;;;;20.92;6.30;;;;;;;16.09;75.26;97966.72;6167370;23;20379;-79
2023/05/27 07:33:16;;;;;;;21.02;6.05;;;;;;;16.15;76.49;97971.81;6141160;23;20387;-79
2023/05/27 07:35:42;;;;;;;25.50;5.93;;;;;;;16.17;76.69;97961.63;6166084;23;20924;-80
2023/05/27 07:38:09;;;;;;;21.77;6.10;;;;;;;16.19;76.15;97975.53;6165997;23;20445;-81
2023/05/27 07:40:36;;;;;;;24.70;6.20;;;;;;;16.10;75.30;97963.00;6167100;23;20426;-80
2023/05/27 07:43:03;;;;;;;21.50;5.80;;;;;;;16.08;74.84;97965.16;6165458;23;20367;-80
2023/05/27 07:45:30;;;;;;;22.60;6.18;;;;;;;16.31;77.33;97958.41;6168503;23;20370;-80
2023/05/27 07:47:56;;;;;;;20.93;5.40;;;;;;;16.41;77.23;97958.34;6144367;23;20434;-81
2023/05/27 07:50:22;;;;;;;23.10;6.22;;;;;;;16.44;76.37;97963.13;6165488;23;20430;-79
2023/05/27 07:52:48;;;;;;;29.07;6.30;;;;;;;16.57;75.36;97958.00;6159714;23;20446;-79
2023/05/27 07:55:15;;;;;;;21.95;6.03;;;;;;;16.71;75.74;97958.22;6161234;23;20367;-79
2023/05/27 07:57:43;;;;;;;18.55;5.50;;;;;;;16.97;74.63;97951.63;6159683;23;20785;-79
2023/05/27 08:00:11;;;;;;;22.35;6.13;;;;;;;16.86;71.70;97944.75;6159130;23;20375;-80
2023/05/27 08:02:37;;;;;;;19.83;6.30;;;;;;;16.98;72.67;97950.56;6160945;23;20394;-79
2023/05/27 08:05:04;;;;;;;21.10;5.68;;;;;;;17.14;72.82;97953.13;6158459;23;20371;-78
2023/05/27 08:07:31;;;;;;;21.77;5.93;;;;;;;17.21;71.50;97956.28;6159977;23;20375;-79
2023/05/27 08:09:57;;;;;;;23.17;6.43;;;;;;;17.34;72.17;97945.72;6159474;23;20367;-79
2023/05/27 08:12:23;;;;;;;17.92;5.78;;;;;;;17.52;71.93;97946.09;6160193;23;20374;-79
2023/05/27 08:14:51;;;;;;;23.80;5.63;;;;;;;17.55;71.36;97934.84;6159156;23;20371;-79
2023/05/27 08:17:18;;;;;;;21.55;5.95;;;;;;;17.60;69.85;97934.78;6159976;23;20370;-78
2023/05/27 08:19:44;;;;;;;24.70;6.13;;;;;;;17.76;71.55;97933.59;6161230;23;20375;-79
2023/05/27 08:22:11;;;;;;;20.77;5.78;;;;;;;17.81;68.24;97930.06;6159626;23;20898;-78
2023/05/27 08:24:38;;;;;;;23.23;5.78;;;;;;;18.07;69.58;97934.06;6160344;23;20673;-77
2023/05/27 08:27:05;;;;;;;24.48;5.75;;;;;;;18.11;66.26;97932.41;6145225;23;20462;-77
2023/05/27 08:29:32;;;;;;;19.92;6.07;;;;;;;18.21;66.13;97928.78;6131901;23;20383;-79
2023/05/27 08:32:00;;;;;;;20.88;5.72;;;;;;;18.37;67.22;97928.31;6162751;23;20368;-77
2023/05/27 08:34:27;;;;;;;20.65;6.10;;;;;;;18.58;68.42;97914.66;6161870;23;20383;-77
2023/05/27 08:36:53;;;;;;;16.70;5.70;;;;;;;18.70;67.63;97915.03;6161532;23;20371;-77
2023/05/27 08:39:20;;;;;;;21.33;6.00;;;;;;;18.74;66.31;97927.56;6160768;23;20756;-77
2023/05/27 08:41:46;;;;;;;17.13;5.38;;;;;;;18.90;67.27;97914.75;6138128;23;20707;-78
2023/05/27 08:44:12;;;;;;;17.63;5.00;;;;;;;19.01;67.21;97915.38;6163217;23;20391;-79
2023/05/27 08:46:41;;;;;;;19.52;5.80;;;;;;;19.16;62.69;97909.78;6164610;23;20405;-79
2023/05/27 08:49:08;;;;;;;19.25;5.18;;;;;;;19.23;62.62;97910.19;6163850;23;20374;-78
2023/05/27 08:51:38;;;;;;;22.27;6.35;;;;;;;19.26;64.78;97912.28;6140496;23;20406;-79
2023/05/27 08:54:05;;;;;;;20.03;5.80;;;;;;;19.35;63.66;97915.88;6165991;23;20770;-79
2023/05/27 08:56:34;;;;;;;19.37;6.23;;;;;;;19.45;64.02;97909.56;6165865;23;20466;-79
2023/05/27 08:59:10;;;;;;;21.83;5.85;;;;;;;19.63;62.00;97912.19;6161262;23;20378;-78
2023/05/27 09:01:43;;;;;;;19.23;6.00;;;;;;;19.74;62.32;97903.97;6162154;23;20370;-78
2023/05/27 09:04:11;;;;;;;19.48;6.00;;;;;;;19.77;60.22;97906.06;6152025;23;20363;-79
2023/05/27 09:06:39;;;;;;;21.50;6.33;;;;;;;19.91;62.14;97901.47;6161500;23;20403;-78
2023/05/27 09:09:09;;;;;;;19.02;5.15;;;;;;;20.01;59.89;97904.75;6163811;23;20398;-79
2023/05/27 09:11:39;;;;;;;18.90;5.75;;;;;;;20.12;60.53;97905.34;6137994;23;20422;-78
2023/05/27 09:14:05;;;;;;;18.65;6.00;;;;;;;20.12;59.87;97897.28;6161954;23;20472;-79
2023/05/27 09:16:32;;;;;;;17.17;5.60;;;;;;;20.24;59.80;97900.25;6159092;23;20371;-77
2023/05/27 09:18:58;;;;;;;16.90;5.67;;;;;;;20.46;60.66;97902.25;6159185;23;20402;-78
2023/05/27 09:21:26;;;;;;;19.70;6.00;;;;;;;20.63;58.92;97888.16;6159941;23;20769;-77
2023/05/27 09:23:56;;;;;;;18.38;5.60;;;;;;;20.82;59.03;97888.81;6159429;23;20363;-77
2023/05/27 09:26:23;;;;;;;17.47;6.03;;;;;;;20.88;54.80;97890.28;6159014;23;20378;-77
2023/05/27 09:29:02;;;;;;;21.40;5.95;;;;;;;21.05;55.74;97889.63;6159957;23;20371;-77
2023/05/27 09:31:29;;;;;;;24.85;5.85;;;;;;;21.19;56.13;97890.38;6157235;23;20363;-78
2023/05/27 09:33:55;;;;;;;22.00;6.30;;;;;;;21.02;55.38;97882.13;6129948;23;20801;-77
2023/05/27 09:36:22;;;;;;;16.35;5.80;;;;;;;21.10;55.55;97882.19;6156509;23;20482;-77
2023/05/27 09:38:50;;;;;;;17.98;5.43;;;;;;;21.31;57.51;97889.78;6131209;23;20470;-77
2023/05/27 09:41:24;;;;;;;16.75;5.93;;;;;;;21.46;55.71;97871.34;6156591;23;20732;-77
2023/05/27 09:43:55;;;;;;;15.15;5.25;;;;;;;21.61;56.74;97880.91;6156277;23;20375;-77
2023/05/27 09:46:22;;;;;;;17.23;6.22;;;;;;;21.78;55.18;97878.31;6158207;23;20367;-78
2023/05/27 09:48:49;;;;;;;18.52;6.60;;;;;;;21.89;53.00;97876.91;6162705;23;20382;-78
2023/05/27 09:51:16;;;;;;;16.52;5.55;;;;;;;21.95;54.61;97877.56;6163168;23;20399;-79
2023/05/27 09:53:45;;;;;;;22.55;5.93;;;;;;;22.06;56.35;97880.78;6163750;23;20389;-77
2023/05/27 09:56:13;;;;;;;26.40;6.28;;;;;;;22.16;55.87;97864.34;6162024;23;20368;-78
2023/05/27 09:58:40;;;;;;;50.80;6.47;;;;;;;22.38;55.71;97875.00;6137296;23;20382;-78
2023/05/27 10:01:06;;;;;;;28.10;6.17;;;;;;;22.64;53.44;97872.31;6161743;23;20367;-78
2023/05/27 10:03:35;;;;;;;19.38;6.30;;;;;;;22.92;51.17;97870.13;6161838;23;20375;-78
2023/05/27 10:06:02;;;;;;;15.70;5.80;;;;;;;23.23;51.15;97857.19;6161426;23;20366;-79
2023/05/27 10:08:28;;;;;;;15.90;5.72;;;;;;;23.52;49.30;97859.22;6162284;23;20397;-79
2023/05/27 10:10:55;;;;;;;20.40;5.95;;;;;;;23.75;52.71;97857.06;6160252;23;21026;-78
2023/05/27 10:13:25;;;;;;;23.08;5.57;;;;;;;24.17;51.06;97869.56;6161461;23;20410;-76
2023/05/27 10:15:52;;;;;;;16.05;6.05;;;;;;;24.51;46.97;97863.16;6161064;23;20398;-78
2023/05/27 10:18:27;;;;;;;14.50;5.30;;;;;;;24.79;47.03;97859.91;6162305;23;20367;-78
2023/05/27 10:20:53;;;;;;;14.18;5.32;;;;;;;25.05;48.38;97858.56;6133429;23;20406;-77
2023/05/27 10:23:25;;;;;;;17.98;5.38;;;;;;;24.98;44.62;97844.78;6152640;23;20382;-77
2023/05/27 10:25:54;;;;;;;14.57;5.45;;;;;;;25.08;46.92;97849.00;6130041;23;20375;-77
2023/05/27 10:28:28;;;;;;;12.90;4.97;;;;;;;25.08;42.28;97840.88;6157601;23;20717;-77
2023/05/27 10:31:04;;;;;;;13.85;5.60;;;;;;;25.45;45.21;97847.16;6155373;23;20382;-76
2023/05/27 10:33:35;;;;;;;17.00;6.10;;;;;;;25.56;45.68;97839.41;6157531;23;20417;-78
2023/05/27 10:36:09;;;;;;;14.77;5.73;;;;;;;25.87;44.14;97836.13;6130772;23;20375;-78
2023/05/27 10:38:36;;;;;;;40.10;28.23;;;;;;;26.05;44.04;97842.91;6157827;23;20395;-77
2023/05/27 10:41:05;;;;;;;93.63;63.55;;;;;;;26.30;44.43;97835.56;6157429;23;20482;-78
2023/05/27 10:43:34;;;;;;;619.72;482.38;;;;;;;26.30;42.20;97824.72;6157187;23;20699;-77
2023/05/27 10:46:06;;;;;;;425.63;318.23;;;;;;;26.23;43.80;97821.78;6157463;23;20374;-77
2023/05/27 10:48:36;;;;;;;350.38;289.05;;;;;;;26.30;45.45;97828.22;6155394;23;20448;-78
2023/05/27 10:51:03;;;;;;;165.60;121.53;;;;;;;26.38;45.17;97827.31;6158231;23;20422;-77
2023/05/27 10:53:30;;;;;;;219.52;164.15;;;;;;;25.48;40.84;97813.19;6157513;23;20394;-78
2023/05/27 10:55:59;;;;;;;151.17;118.37;;;;;;;25.85;45.90;97820.22;6156864;23;20429;-77
2023/05/27 10:58:26;;;;;;;21.33;12.73;;;;;;;26.11;43.51;97820.63;6153779;23;20378;-80
2023/05/27 11:00:56;;;;;;;48.40;32.23;;;;;;;26.26;44.58;97815.66;6157295;23;20386;-78
2023/05/27 11:03:24;;;;;;;33.33;8.00;;;;;;;26.45;43.81;97810.44;6132745;23;20367;-77
2023/05/27 11:06:03;;;;;;;19.33;8.20;;;;;;;26.55;42.12;97815.34;6156420;23;20418;-77
2023/05/27 11:08:30;;;;;;;19.10;6.50;;;;;;;26.65;44.02;97805.94;6154115;23;20379;-77
2023/05/27 11:11:00;;;;;;;16.45;7.45;;;;;;;26.92;42.28;97807.88;6158377;23;20430;-78
2023/05/27 11:13:33;;;;;;;31.40;15.52;;;;;;;26.92;42.54;97799.72;6159385;23;20843;-79
2023/05/27 11:16:03;;;;;;;19.65;7.75;;;;;;;26.54;41.73;97816.50;6160968;23;20380;-77
2023/05/27 11:18:39;;;;;;;23.57;7.63;;;;;;;26.24;45.04;97804.34;6153384;23;20359;-76
2023/05/27 11:21:06;;;;;;;14.70;5.80;;;;;;;26.26;43.20;97800.19;6139180;23;20890;-76
2023/05/27 11:23:40;;;;;;;12.07;5.45;;;;;;;26.02;42.53;97792.03;6149342;23;20831;-77